Main page
METAR-TAF:

METAR-TAF

Airports :

Militärflugplatz Emmen

Emmen, Switzerland

latitude: 47-05-32N, longitude: 8-18-16E, elevation: 426 m

Current weather observation

The report was made 37 minutes ago, at 08:20 UTC
Wind 3 kt from the Northeast, varying between North/Northwest and East
Temperature 7°C
Humidity 53%
Pressure 1017 hPa
Visibility 10 km or more
no clouds below 1500 m and no cumulonimbus

METAR: LSME 030820Z 04003KT 340V100 CAVOK 07/M02 Q1017 RMK BLU

Time: 10:57 (08:57 UTC)


TAF: missing

Weather observations and forecasts of more than 4000 airports (METAR and TAF reports).

The available stations are represented by yellow and red dots on the map.

Hover mouse over dot to see the name of the station.

Then click to see weather observations and forecasts.

To change the map : click on the green buttons with a black cross to zoom in, on the green button with a dash to zoom out, or on the green arrows for adjacent maps.


METAR-TAF: